Time;durP1;ratioP1;P1;durP2;ratioP2;P2;SDS_P1;SDS_P2;PMS_P1;PMS_P2;Temp;Humidity;BMP_temperature;BMP_pressure;BME280_temperature;BME280_humidity;BME280_pressure;Samples;Min_cycle;Max_cycle;Signal;HPM_P1;HPM_P2
2023/01/08 00:01:06;;;;;;;25.77;22.98;;;8.60;99.90;;;;;;4015322;29;20057;-93
2023/01/08 00:03:26;;;;;;;26.40;23.53;;;8.50;99.90;;;;;;4014187;29;20372;-93
2023/01/08 00:05:46;;;;;;;17.60;16.02;;;8.40;99.90;;;;;;4015658;29;20334;-93
2023/01/08 00:08:07;;;;;;;16.45;15.35;;;8.50;99.90;;;;;;4015152;29;20057;-95
2023/01/08 00:10:27;;;;;;;17.65;16.08;;;8.60;99.90;;;;;;4020007;29;20105;-93
2023/01/08 00:12:46;;;;;;;16.60;15.15;;;8.60;99.90;;;;;;4015399;29;20067;-93
2023/01/08 00:15:06;;;;;;;17.10;15.77;;;8.60;99.90;;;;;;4015597;29;20049;-94
2023/01/08 00:17:26;;;;;;;20.30;18.45;;;8.60;99.90;;;;;;4027602;29;20114;-94
2023/01/08 00:19:46;;;;;;;18.23;16.52;;;8.60;99.90;;;;;;4014214;29;20350;-92
2023/01/08 00:22:06;;;;;;;24.40;21.33;;;8.50;99.90;;;;;;4015327;29;20062;-93
2023/01/08 00:24:27;;;;;;;23.70;21.55;;;8.50;99.90;;;;;;4014512;29;20088;-93
2023/01/08 00:26:46;;;;;;;19.63;17.88;;;8.40;99.90;;;;;;4006426;29;20075;-93
2023/01/08 00:29:06;;;;;;;18.33;17.02;;;8.50;99.90;;;;;;4015334;29;20106;-92
2023/01/08 00:31:26;;;;;;;24.08;21.48;;;8.60;99.90;;;;;;4016852;29;20113;-94
2023/01/08 00:33:46;;;;;;;21.77;19.75;;;8.50;99.90;;;;;;4013797;29;20249;-93
2023/01/08 00:36:13;;;;;;;21.40;19.17;;;8.50;99.90;;;;;;4015267;29;20098;-93
2023/01/08 00:38:33;;;;;;;21.27;19.35;;;8.40;99.90;;;;;;4014227;29;20065;-92
2023/01/08 00:40:53;;;;;;;18.85;17.27;;;8.50;99.90;;;;;;4015128;29;20094;-93
2023/01/08 00:43:13;;;;;;;19.17;17.17;;;8.50;99.90;;;;;;4014888;29;20404;-94
2023/01/08 00:45:33;;;;;;;18.95;17.08;;;8.50;99.90;;;;;;4015246;29;20049;-92
2023/01/08 00:47:53;;;;;;;19.38;17.83;;;8.50;99.90;;;;;;4013490;29;20093;-94
2023/01/08 00:50:13;;;;;;;22.80;20.65;;;8.50;99.90;;;;;;4025937;29;20110;-93
2023/01/08 00:52:33;;;;;;;20.05;18.17;;;8.50;99.90;;;;;;4015098;29;20086;-94
2023/01/08 00:54:52;;;;;;;20.98;19.02;;;8.50;99.90;;;;;;4015087;29;20072;-94
2023/01/08 00:57:12;;;;;;;22.15;19.08;;;8.50;99.90;;;;;;4014079;29;20056;-93
2023/01/08 00:59:32;;;;;;;26.33;23.60;;;8.50;99.90;;;;;;4014728;29;20405;-92
2023/01/08 01:01:53;;;;;;;26.85;23.98;;;8.40;99.90;;;;;;4014732;29;20405;-93
2023/01/08 01:04:15;;;;;;;25.65;22.25;;;8.40;99.90;;;;;;4014949;29;20049;-93
2023/01/08 01:06:35;;;;;;;24.98;21.55;;;8.40;99.90;;;;;;4014955;29;20112;-93
2023/01/08 01:08:56;;;;;;;47.85;29.98;;;8.30;99.90;;;;;;4013140;29;20076;-93
2023/01/08 01:11:24;;;;;;;21.25;19.10;;;8.30;99.90;;;;;;4015113;29;20113;-92
2023/01/08 01:13:44;;;;;;;26.08;21.40;;;8.30;99.90;;;;;;4013437;29;20053;-92
2023/01/08 01:16:04;;;;;;;23.98;21.23;;;8.30;99.90;;;;;;4012565;29;20244;-94
2023/01/08 01:18:24;;;;;;;20.92;18.75;;;8.20;99.90;;;;;;4014814;29;20074;-94
2023/01/08 01:20:45;;;;;;;27.52;24.63;;;8.30;99.90;;;;;;4026664;29;20052;-93
2023/01/08 01:23:05;;;;;;;19.02;17.23;;;8.30;99.90;;;;;;4016480;29;20085;-94
2023/01/08 01:25:57;;;;;;;16.13;14.73;;;8.30;99.90;;;;;;4013851;29;20137;-93
2023/01/08 01:28:17;;;;;;;16.05;14.75;;;8.40;99.90;;;;;;4014100;29;20057;-94
2023/01/08 01:30:37;;;;;;;16.20;14.80;;;8.50;99.90;;;;;;4012464;29;20066;-93
2023/01/08 01:32:58;;;;;;;16.23;15.07;;;8.60;99.90;;;;;;4014556;29;20084;-94
2023/01/08 01:35:18;;;;;;;14.27;13.20;;;8.60;99.90;;;;;;4016686;29;20049;-93
2023/01/08 01:37:37;;;;;;;14.45;13.35;;;8.60;99.90;;;;;;4013341;29;20061;-92
2023/01/08 01:39:57;;;;;;;15.18;14.02;;;8.60;99.90;;;;;;4012253;29;20056;-92
2023/01/08 01:44:57;;;;;;;16.35;14.77;;;8.60;99.90;;;;;;4014883;29;20090;-93
2023/01/08 01:47:33;;;;;;;14.90;13.80;;;8.60;99.90;;;;;;4016871;29;20076;-94
2023/01/08 01:50:07;;;;;;;14.50;13.63;;;8.60;99.90;;;;;;4028318;29;20068;-93
2023/01/08 01:52:31;;;;;;;15.68;14.52;;;8.60;99.90;;;;;;4028792;29;20070;-92
2023/01/08 01:54:52;;;;;;;15.75;14.55;;;8.60;99.90;;;;;;4014285;29;20070;-93
2023/01/08 01:57:12;;;;;;;16.33;14.70;;;8.60;99.90;;;;;;4028918;29;20052;-93
2023/01/08 01:59:32;;;;;;;14.52;13.57;;;8.60;99.90;;;;;;4016462;29;20049;-94
2023/01/08 02:01:54;;;;;;;14.30;13.40;;;8.60;99.90;;;;;;4017133;29;20153;-94
2023/01/08 02:04:14;;;;;;;16.52;15.10;;;8.60;99.90;;;;;;4018508;29;20110;-93
2023/01/08 02:06:40;;;;;;;15.60;14.40;;;8.60;99.90;;;;;;4016496;29;20064;-94
2023/01/08 02:09:07;;;;;;;15.88;14.65;;;8.60;99.90;;;;;;4016781;29;20049;-93
2023/01/08 02:11:27;;;;;;;14.27;13.20;;;8.50;99.90;;;;;;4006837;29;20322;-94
2023/01/08 02:14:00;;;;;;;15.63;14.43;;;8.50;99.90;;;;;;4005387;29;20097;-94
2023/01/08 02:16:43;;;;;;;14.05;12.82;;;8.40;99.90;;;;;;4015351;29;20407;-94
2023/01/08 02:19:16;;;;;;;15.55;14.43;;;8.50;99.90;;;;;;4016812;29;20057;-94
2023/01/08 02:21:50;;;;;;;14.83;13.53;;;8.50;99.90;;;;;;4015022;29;20085;-93
2023/01/08 02:24:16;;;;;;;14.65;13.43;;;8.40;99.90;;;;;;4006831;29;20298;-94
2023/01/08 02:26:36;;;;;;;13.55;12.38;;;8.50;99.90;;;;;;4016084;29;20097;-94
2023/01/08 02:29:06;;;;;;;15.43;13.90;;;8.40;99.90;;;;;;4015691;29;20091;-93
2023/01/08 02:31:29;;;;;;;16.67;15.05;;;8.50;99.90;;;;;;4029713;29;20072;-93
2023/01/08 02:33:49;;;;;;;16.52;15.43;;;8.50;99.90;;;;;;4016811;29;20234;-94
2023/01/08 02:36:35;;;;;;;15.07;13.82;;;8.60;99.90;;;;;;4015904;29;20102;-94
2023/01/08 02:39:29;;;;;;;16.27;14.88;;;8.60;99.90;;;;;;4006151;29;20049;-92
2023/01/08 02:42:11;;;;;;;15.40;14.30;;;8.60;99.90;;;;;;4016616;29;20126;-93
2023/01/08 02:44:55;;;;;;;16.40;15.07;;;8.60;99.90;;;;;;4008260;29;20076;-93
2023/01/08 02:47:30;;;;;;;15.57;14.20;;;8.60;99.90;;;;;;4016621;29;20057;-94
2023/01/08 02:49:59;;;;;;;13.23;12.25;;;8.60;99.90;;;;;;4014983;29;20086;-93
2023/01/08 02:52:19;;;;;;;15.40;14.23;;;8.60;99.90;;;;;;4016228;29;20121;-94
2023/01/08 02:54:41;;;;;;;15.48;14.13;;;8.60;99.90;;;;;;4015425;29;20237;-94
2023/01/08 02:57:09;;;;;;;14.27;13.30;;;8.60;99.90;;;;;;4015769;29;20377;-95
2023/01/08 02:59:32;;;;;;;14.00;13.20;;;8.60;99.90;;;;;;4016050;29;20061;-94
2023/01/08 03:01:53;;;;;;;13.27;12.52;;;8.60;99.90;;;;;;4006693;29;20062;-94
2023/01/08 03:04:17;;;;;;;14.18;13.07;;;8.60;99.90;;;;;;4016388;29;20107;-94
2023/01/08 03:06:37;;;;;;;14.57;13.38;;;8.60;99.90;;;;;;4017922;29;20088;-93
2023/01/08 03:08:59;;;;;;;16.75;15.43;;;8.60;99.90;;;;;;4014092;29;20433;-93
2023/01/08 03:11:21;;;;;;;16.58;15.25;;;8.60;99.90;;;;;;4015882;29;20070;-92
2023/01/08 03:14:10;;;;;;;16.55;15.23;;;8.50;99.90;;;;;;4016113;29;20085;-93
2023/01/08 03:16:35;;;;;;;14.55;13.00;;;8.50;99.90;;;;;;4027332;29;20379;-93
2023/01/08 03:19:01;;;;;;;14.68;13.45;;;8.50;99.90;;;;;;4015586;29;20128;-93
2023/01/08 03:21:22;;;;;;;14.52;13.27;;;8.40;99.90;;;;;;4019646;29;20040;-93
2023/01/08 03:23:45;;;;;;;15.20;13.88;;;8.40;99.90;;;;;;4016207;29;20056;-94
2023/01/08 03:26:06;;;;;;;15.88;14.55;;;8.40;99.90;;;;;;4014353;29;20233;-93
2023/01/08 03:28:32;;;;;;;14.50;13.27;;;8.30;99.90;;;;;;4013991;29;20048;-94
2023/01/08 03:30:52;;;;;;;15.23;13.93;;;8.40;99.90;;;;;;4026757;29;20072;-94
2023/01/08 03:33:14;;;;;;;13.60;12.23;;;8.40;99.90;;;;;;4006353;29;20284;-94
2023/01/08 03:35:38;;;;;;;13.90;12.90;;;8.40;99.90;;;;;;4015787;29;20057;-94
2023/01/08 03:38:07;;;;;;;15.10;13.73;;;8.40;99.90;;;;;;4015606;29;20121;-93
2023/01/08 03:40:39;;;;;;;13.77;12.98;;;8.30;99.90;;;;;;4015995;29;20091;-93
2023/01/08 03:42:59;;;;;;;15.18;13.85;;;8.20;99.90;;;;;;4014873;29;20045;-94
2023/01/08 03:45:21;;;;;;;14.57;13.18;;;8.10;99.90;;;;;;4006539;29;20061;-94
2023/01/08 03:47:42;;;;;;;15.02;13.77;;;8.10;99.90;;;;;;4015799;29;20049;-93
2023/01/08 03:50:07;;;;;;;14.77;13.40;;;8.10;99.90;;;;;;4015591;29;20094;-92
2023/01/08 03:52:29;;;;;;;14.55;13.40;;;8.00;99.90;;;;;;4027131;29;20260;-93
2023/01/08 03:54:49;;;;;;;15.53;14.23;;;8.10;99.90;;;;;;4014586;29;20052;-94
2023/01/08 03:57:09;;;;;;;15.40;14.23;;;8.00;99.90;;;;;;4014275;29;20124;-93
2023/01/08 03:59:29;;;;;;;13.18;12.13;;;8.00;99.90;;;;;;4015030;29;20414;-93
2023/01/08 04:01:49;;;;;;;15.43;14.43;;;8.00;99.90;;;;;;4027886;29;20074;-94
2023/01/08 04:04:10;;;;;;;14.15;12.98;;;8.00;99.90;;;;;;4014611;29;20045;-93
2023/01/08 04:06:30;;;;;;;15.25;13.90;;;8.00;99.90;;;;;;4014475;29;20053;-94
2023/01/08 04:08:50;;;;;;;14.70;13.30;;;8.00;99.90;;;;;;4013470;29;20065;-93
2023/01/08 04:11:10;;;;;;;17.85;13.90;;;8.00;99.90;;;;;;4014550;29;20077;-94
2023/01/08 04:13:30;;;;;;;14.70;13.50;;;8.00;99.90;;;;;;4016233;29;20053;-93
2023/01/08 04:15:50;;;;;;;14.85;13.60;;;8.10;99.90;;;;;;4014395;29;20269;-94
2023/01/08 04:18:11;;;;;;;14.88;13.50;;;8.10;99.90;;;;;;4015349;29;20330;-93
2023/01/08 04:20:30;;;;;;;16.13;14.63;;;8.20;99.90;;;;;;4015342;29;20164;-92
2023/01/08 04:22:50;;;;;;;13.88;13.00;;;8.20;99.90;;;;;;4015518;29;20371;-93
2023/01/08 04:25:10;;;;;;;14.32;13.00;;;8.20;99.90;;;;;;4015187;29;20056;-92
2023/01/08 04:27:30;;;;;;;13.98;12.60;;;8.20;99.90;;;;;;4015365;29;20368;-92
2023/01/08 04:29:50;;;;;;;14.00;12.80;;;8.20;99.90;;;;;;4014350;29;20245;-91
2023/01/08 04:32:10;;;;;;;15.23;13.73;;;8.20;99.90;;;;;;4014353;29;20066;-92
2023/01/08 04:34:30;;;;;;;12.90;11.98;;;8.20;99.90;;;;;;4013574;29;20048;-93
2023/01/08 04:36:50;;;;;;;13.73;12.43;;;8.20;99.90;;;;;;4014308;29;20136;-92
2023/01/08 04:39:10;;;;;;;14.02;12.52;;;8.20;99.90;;;;;;4013726;29;20053;-93
2023/01/08 04:41:30;;;;;;;13.85;12.43;;;8.30;99.90;;;;;;4015156;29;20350;-93
2023/01/08 04:43:51;;;;;;;12.60;11.55;;;8.20;99.90;;;;;;4014687;29;20052;-93
2023/01/08 04:46:10;;;;;;;12.05;11.10;;;8.20;99.90;;;;;;4014689;29;20351;-93
2023/01/08 04:48:30;;;;;;;13.90;12.88;;;8.30;99.90;;;;;;4015193;29;20082;-93
2023/01/08 04:50:51;;;;;;;13.50;12.30;;;8.30;99.90;;;;;;4014810;29;20076;-93
2023/01/08 04:53:10;;;;;;;13.65;12.45;;;8.30;99.90;;;;;;4006810;29;20052;-93
2023/01/08 04:55:32;;;;;;;13.65;12.45;;;8.30;99.90;;;;;;4013824;29;20133;-93
2023/01/08 04:57:51;;;;;;;13.93;12.63;;;8.20;99.90;;;;;;4015135;29;20060;-93
2023/01/08 05:00:12;;;;;;;15.25;14.00;;;8.30;99.90;;;;;;4015112;29;20088;-93
2023/01/08 05:02:32;;;;;;;14.13;13.20;;;8.30;99.90;;;;;;4014380;29;20056;-94
2023/01/08 05:04:52;;;;;;;13.88;12.68;;;8.30;99.90;;;;;;4013568;29;20289;-93
2023/01/08 05:07:12;;;;;;;15.90;14.35;;;8.30;99.90;;;;;;4020267;29;20052;-94
2023/01/08 05:09:33;;;;;;;15.52;13.93;;;8.30;99.90;;;;;;4026544;29;20109;-92
2023/01/08 05:11:52;;;;;;;15.68;13.88;;;8.20;99.90;;;;;;4025921;29;20062;-93
2023/01/08 05:14:12;;;;;;;15.55;14.32;;;8.30;99.90;;;;;;4013854;29;20081;-93
2023/01/08 05:16:32;;;;;;;14.60;13.52;;;8.20;99.90;;;;;;4014816;29;20085;-93
2023/01/08 05:18:51;;;;;;;15.18;13.55;;;8.20;99.90;;;;;;4026845;29;20084;-93
2023/01/08 05:21:12;;;;;;;15.52;14.27;;;8.30;99.90;;;;;;4015094;29;20045;-92
2023/01/08 05:23:32;;;;;;;15.63;14.15;;;8.20;99.90;;;;;;4005148;29;20079;-92
2023/01/08 05:25:55;;;;;;;15.80;14.60;;;8.20;99.90;;;;;;4014050;29;20056;-93
2023/01/08 05:28:15;;;;;;;15.60;14.38;;;8.20;99.90;;;;;;4013924;29;20089;-93
2023/01/08 05:30:36;;;;;;;14.18;12.75;;;8.20;99.90;;;;;;4025822;29;20094;-93
2023/01/08 05:32:55;;;;;;;14.68;13.70;;;8.20;99.90;;;;;;4013888;29;20057;-94
2023/01/08 05:35:16;;;;;;;15.32;14.15;;;8.30;99.90;;;;;;4014195;29;20053;-93
2023/01/08 05:37:36;;;;;;;14.95;13.45;;;8.30;99.90;;;;;;4002993;29;20094;-93
2023/01/08 05:39:56;;;;;;;15.52;14.27;;;8.20;99.90;;;;;;4005371;29;20117;-94
2023/01/08 05:42:16;;;;;;;15.80;14.25;;;8.30;99.90;;;;;;4026197;29;20145;-93
2023/01/08 05:44:36;;;;;;;14.57;13.45;;;8.30;99.90;;;;;;4014614;29;20053;-92
2023/01/08 05:46:56;;;;;;;14.35;13.35;;;8.30;99.90;;;;;;4014688;29;20384;-93
2023/01/08 05:49:16;;;;;;;15.60;14.05;;;8.30;99.90;;;;;;4014648;29;20098;-93
2023/01/08 05:51:36;;;;;;;14.85;13.30;;;8.30;99.90;;;;;;4026269;29;20101;-93
2023/01/08 05:53:56;;;;;;;14.85;13.77;;;8.40;99.90;;;;;;4013721;29;20095;-93
2023/01/08 05:56:16;;;;;;;14.95;13.90;;;8.40;99.90;;;;;;4013666;29;20231;-93
2023/01/08 05:58:37;;;;;;;12.60;11.82;;;8.40;99.90;;;;;;4014465;29;20245;-93
2023/01/08 06:01:08;;;;;;;14.38;13.15;;;8.30;99.90;;;;;;4014283;29;20090;-93
2023/01/08 06:03:28;;;;;;;12.50;11.68;;;8.30;99.90;;;;;;4025336;29;20060;-94
2023/01/08 06:05:48;;;;;;;14.00;13.15;;;8.30;99.90;;;;;;4014203;29;20113;-92
2023/01/08 06:08:08;;;;;;;12.98;12.15;;;8.30;99.90;;;;;;4013757;29;20306;-93
2023/01/08 06:10:28;;;;;;;12.98;12.10;;;8.30;99.90;;;;;;4026000;29;20372;-93
2023/01/08 06:12:48;;;;;;;12.52;11.88;;;8.30;99.90;;;;;;4012886;29;20099;-93
2023/01/08 06:15:10;;;;;;;13.07;11.85;;;8.20;99.90;;;;;;4012161;29;20052;-93
2023/01/08 06:17:30;;;;;;;12.88;12.07;;;8.20;99.90;;;;;;4002071;29;20064;-93
2023/01/08 06:19:50;;;;;;;12.10;11.25;;;8.20;99.90;;;;;;4014023;29;20067;-92
2023/01/08 06:22:10;;;;;;;10.52;10.10;;;8.20;99.90;;;;;;4016879;29;20375;-92
2023/01/08 06:24:29;;;;;;;14.38;11.82;;;8.20;99.90;;;;;;4013310;29;20384;-92
2023/01/08 06:26:49;;;;;;;11.40;10.80;;;8.10;99.90;;;;;;4014134;29;20090;-94
2023/01/08 06:29:09;;;;;;;9.57;9.02;;;8.10;99.90;;;;;;4014152;29;20049;-92
2023/01/08 06:31:29;;;;;;;11.52;10.95;;;8.10;99.90;;;;;;4014623;29;20053;-93
2023/01/08 06:33:49;;;;;;;10.32;9.80;;;8.10;99.90;;;;;;4015577;29;20360;-93
2023/01/08 06:36:10;;;;;;;9.93;9.32;;;8.00;99.90;;;;;;4028667;29;20052;-92
2023/01/08 06:38:35;;;;;;;11.15;10.27;;;8.00;99.90;;;;;;4017877;29;20067;-93
2023/01/08 06:40:54;;;;;;;11.32;10.55;;;7.90;99.90;;;;;;4016286;29;20049;-93
2023/01/08 06:43:14;;;;;;;10.23;9.82;;;8.00;99.90;;;;;;4016469;29;20146;-93
2023/01/08 06:45:34;;;;;;;11.00;10.50;;;8.00;99.90;;;;;;4008732;29;20050;-92
2023/01/08 06:47:54;;;;;;;9.73;9.18;;;7.90;99.90;;;;;;4015772;29;20151;-93
2023/01/08 06:50:14;;;;;;;10.02;9.38;;;7.90;99.90;;;;;;4028042;29;20094;-92
2023/01/08 06:52:34;;;;;;;9.90;9.40;;;8.00;99.90;;;;;;4016545;29;20049;-90
2023/01/08 06:54:53;;;;;;;10.45;9.95;;;7.90;99.90;;;;;;4015663;29;20053;-92
2023/01/08 06:57:13;;;;;;;9.50;9.00;;;8.00;99.90;;;;;;4015417;29;20057;-92
2023/01/08 06:59:33;;;;;;;11.93;11.13;;;7.90;99.90;;;;;;4016451;29;20079;-91
2023/01/08 07:01:53;;;;;;;12.93;11.85;;;8.00;99.90;;;;;;4018817;29;20053;-92
2023/01/08 07:04:13;;;;;;;12.95;12.18;;;8.10;99.90;;;;;;4015912;29;20086;-90
2023/01/08 07:06:34;;;;;;;12.15;11.18;;;8.10;99.90;;;;;;4015511;29;20248;-89
2023/01/08 07:08:54;;;;;;;10.57;10.05;;;8.00;99.90;;;;;;4015160;29;20053;-89
2023/01/08 07:11:14;;;;;;;9.48;9.05;;;8.00;99.90;;;;;;4021630;29;20060;-90
2023/01/08 07:13:35;;;;;;;11.57;9.00;;;8.00;99.90;;;;;;4028049;29;20078;-90
2023/01/08 07:15:55;;;;;;;7.80;7.60;;;8.10;99.90;;;;;;4016160;29;20070;-90
2023/01/08 07:18:15;;;;;;;8.35;8.00;;;8.20;99.90;;;;;;4014771;29;20121;-90
2023/01/08 07:20:36;;;;;;;9.68;8.95;;;8.30;99.90;;;;;;4013726;29;20053;-89
2023/01/08 07:23:00;;;;;;;8.68;8.27;;;8.30;99.90;;;;;;4008976;29;20129;-90
2023/01/08 07:25:20;;;;;;;7.78;7.03;;;8.30;99.90;;;;;;4014756;29;20098;-89
2023/01/08 07:27:40;;;;;;;8.05;7.85;;;8.30;99.90;;;;;;4014876;29;20044;-90
2023/01/08 07:30:00;;;;;;;8.40;7.95;;;8.40;99.90;;;;;;4015586;29;20248;-89
2023/01/08 07:32:20;;;;;;;6.72;6.43;;;8.40;99.90;;;;;;4016005;29;20102;-90
2023/01/08 07:34:40;;;;;;;8.15;7.85;;;8.70;99.90;;;;;;4015071;29;20071;-90
2023/01/08 07:37:00;;;;;;;8.77;8.38;;;9.00;99.90;;;;;;4015501;29;20103;-89
2023/01/08 07:39:20;;;;;;;6.25;5.95;;;9.10;99.90;;;;;;4028041;29;20044;-90
2023/01/08 07:41:40;;;;;;;5.82;5.38;;;9.20;99.90;;;;;;4006528;29;20056;-90
2023/01/08 07:44:00;;;;;;;6.93;6.43;;;9.60;99.90;;;;;;4015638;29;20053;-90
2023/01/08 07:46:21;;;;;;;11.57;10.63;;;9.60;99.90;;;;;;4015587;29;20053;-89
2023/01/08 07:48:41;;;;;;;8.65;8.25;;;9.50;99.90;;;;;;4014853;29;20061;-89
2023/01/08 07:51:06;;;;;;;7.20;6.90;;;9.40;99.90;;;;;;4015667;29;20060;-89
2023/01/08 07:53:25;;;;;;;8.68;7.95;;;9.40;99.90;;;;;;4015650;29;20401;-90
2023/01/08 07:55:46;;;;;;;9.43;8.88;;;9.40;99.90;;;;;;4027479;29;20294;-90
2023/01/08 07:58:11;;;;;;;8.63;7.90;;;9.40;99.90;;;;;;4015293;29;20398;-89
2023/01/08 08:00:31;;;;;;;7.65;7.13;;;9.50;99.90;;;;;;4025885;29;20292;-90
2023/01/08 08:02:51;;;;;;;8.05;7.75;;;9.50;99.90;;;;;;4015612;29;20090;-90
2023/01/08 08:05:11;;;;;;;7.47;7.28;;;9.50;99.90;;;;;;4015589;29;20300;-90
2023/01/08 08:07:31;;;;;;;11.75;10.70;;;9.60;99.90;;;;;;4017683;29;20052;-90
2023/01/08 08:09:51;;;;;;;9.20;8.70;;;9.50;99.90;;;;;;4015494;29;20114;-90
2023/01/08 08:12:13;;;;;;;9.50;8.68;;;9.40;99.90;;;;;;4014576;29;20048;-89
2023/01/08 08:14:32;;;;;;;8.20;7.68;;;9.40;99.90;;;;;;4014909;29;20098;-90
2023/01/08 08:16:52;;;;;;;8.55;7.95;;;9.40;99.90;;;;;;4015419;29;20057;-88
2023/01/08 08:19:12;;;;;;;7.93;7.45;;;9.40;99.90;;;;;;4014784;29;20163;-87
2023/01/08 08:21:32;;;;;;;11.27;10.57;;;9.50;99.90;;;;;;4026446;29;20270;-87
2023/01/08 08:23:52;;;;;;;9.55;9.15;;;9.50;99.90;;;;;;4015131;29;20125;-86
2023/01/08 08:26:12;;;;;;;10.95;9.60;;;9.40;99.90;;;;;;4027438;29;20057;-86
2023/01/08 08:28:32;;;;;;;9.05;8.40;;;9.40;99.90;;;;;;4015352;29;20379;-86
2023/01/08 08:30:52;;;;;;;9.65;8.68;;;9.50;99.90;;;;;;4014453;29;20137;-87
2023/01/08 08:33:12;;;;;;;7.53;7.05;;;9.40;99.90;;;;;;4014976;29;20114;-87
2023/01/08 08:35:33;;;;;;;8.05;7.28;;;9.60;99.90;;;;;;4015197;29;20118;-86
2023/01/08 08:37:54;;;;;;;6.95;6.57;;;9.60;99.90;;;;;;4014823;29;20094;-87
2023/01/08 08:40:14;;;;;;;6.80;6.57;;;9.60;99.90;;;;;;4014644;29;20053;-86
2023/01/08 08:42:34;;;;;;;7.10;6.75;;;9.70;99.90;;;;;;4004387;29;20053;-87
2023/01/08 08:44:53;;;;;;;6.22;6.13;;;9.70;99.90;;;;;;4015097;29;20072;-87
2023/01/08 08:47:14;;;;;;;6.97;6.80;;;9.60;99.90;;;;;;4015168;29;20089;-87
2023/01/08 08:49:35;;;;;;;7.55;7.10;;;9.60;99.90;;;;;;4014794;29;20091;-87
2023/01/08 08:51:55;;;;;;;7.82;7.47;;;9.60;99.90;;;;;;4015041;29;20049;-87
2023/01/08 08:54:14;;;;;;;10.05;9.45;;;9.60;99.90;;;;;;4014369;29;20229;-87
2023/01/08 08:56:34;;;;;;;7.68;7.28;;;9.50;99.90;;;;;;4013737;29;20072;-87
2023/01/08 08:58:54;;;;;;;9.65;8.95;;;9.50;99.90;;;;;;4014847;29;20052;-87
2023/01/08 09:01:14;;;;;;;6.90;6.70;;;9.50;99.90;;;;;;4014692;29;20061;-87
2023/01/08 09:03:34;;;;;;;7.85;7.45;;;9.50;99.90;;;;;;4013661;29;20298;-87
2023/01/08 09:05:54;;;;;;;11.35;10.35;;;9.50;99.90;;;;;;4014406;29;20097;-87
2023/01/08 09:08:14;;;;;;;9.80;9.20;;;9.50;99.90;;;;;;4027006;29;20162;-87
2023/01/08 09:10:36;;;;;;;10.65;9.82;;;9.50;99.90;;;;;;4014907;29;20110;-87
2023/01/08 09:12:57;;;;;;;10.77;10.25;;;9.50;99.90;;;;;;4014837;29;20089;-87
2023/01/08 09:15:17;;;;;;;8.85;8.35;;;9.50;99.90;;;;;;4015016;29;20090;-87
2023/01/08 09:17:37;;;;;;;9.88;9.27;;;9.50;99.90;;;;;;4013901;29;20044;-87
2023/01/08 09:19:57;;;;;;;7.85;7.55;;;9.50;99.90;;;;;;4014649;29;20091;-87
2023/01/08 09:22:17;;;;;;;8.65;8.10;;;9.40;99.90;;;;;;4003795;29;20065;-87
2023/01/08 09:24:36;;;;;;;9.98;8.93;;;9.30;99.90;;;;;;4015759;29;20060;-87
2023/01/08 09:26:57;;;;;;;9.60;8.85;;;9.40;99.90;;;;;;4014746;29;20053;-87
2023/01/08 09:29:17;;;;;;;13.50;12.55;;;9.30;99.90;;;;;;4026469;29;20233;-87
2023/01/08 09:31:38;;;;;;;14.15;13.15;;;9.30;99.90;;;;;;4013834;29;20080;-87
2023/01/08 09:33:58;;;;;;;18.92;16.95;;;9.30;99.90;;;;;;4013267;29;20061;-87
2023/01/08 09:36:18;;;;;;;18.55;16.67;;;9.30;99.90;;;;;;4012637;29;20052;-87
2023/01/08 09:38:37;;;;;;;18.35;15.88;;;9.30;99.90;;;;;;4014131;29;20273;-87
2023/01/08 09:41:09;;;;;;;16.70;14.63;;;9.30;99.90;;;;;;4014477;29;20052;-87
2023/01/08 09:43:32;;;;;;;15.48;14.13;;;9.30;99.90;;;;;;4013681;29;20054;-87
2023/01/08 09:45:53;;;;;;;;;;;9.30;99.90;;;;;;4014108;29;20049;-87
2023/01/08 09:48:17;;;;;;;15.55;13.98;;;9.30;99.90;;;;;;4014529;29;20226;-87
2023/01/08 09:50:37;;;;;;;15.90;14.30;;;9.30;99.90;;;;;;4014273;29;20114;-86
2023/01/08 09:52:58;;;;;;;16.05;14.48;;;9.30;99.90;;;;;;4005691;29;20049;-87
2023/01/08 09:55:18;;;;;;;14.57;13.27;;;9.40;99.90;;;;;;4014256;29;20057;-87
2023/01/08 09:57:39;;;;;;;12.27;11.48;;;9.50;99.90;;;;;;4013819;29;20279;-87
2023/01/08 09:59:59;;;;;;;11.18;10.35;;;9.50;99.90;;;;;;4014369;29;20057;-87
2023/01/08 10:02:22;;;;;;;10.50;9.90;;;9.60;99.90;;;;;;4017639;29;20397;-87
2023/01/08 10:04:44;;;;;;;11.93;10.98;;;9.60;99.90;;;;;;4013342;29;20428;-87
2023/01/08 10:07:20;;;;;;;11.73;11.02;;;9.60;99.90;;;;;;4016680;29;20074;-87
2023/01/08 10:09:40;;;;;;;9.55;9.15;;;9.60;99.90;;;;;;4014667;29;20045;-87
2023/01/08 10:12:03;;;;;;;10.07;9.45;;;9.60;99.90;;;;;;4016927;29;20057;-87
2023/01/08 10:14:30;;;;;;;11.10;10.50;;;9.60;99.90;;;;;;4020643;29;20326;-87
2023/01/08 10:16:57;;;;;;;9.25;8.60;;;9.60;99.90;;;;;;4026973;29;20108;-87
2023/01/08 10:19:17;;;;;;;9.60;8.90;;;9.60;99.90;;;;;;4006659;29;20069;-87
2023/01/08 10:21:39;;;;;;;8.07;7.80;;;9.60;99.90;;;;;;4016502;29;20061;-87
2023/01/08 10:24:00;;;;;;;8.93;8.43;;;9.60;99.90;;;;;;4017364;29;20376;-87
2023/01/08 10:26:32;;;;;;;11.70;10.88;;;9.60;99.90;;;;;;4016740;29;20082;-87
2023/01/08 10:29:04;;;;;;;7.47;7.28;;;9.70;99.90;;;;;;4016595;29;20072;-87
2023/01/08 10:31:24;;;;;;;8.00;7.60;;;9.70;99.90;;;;;;4028577;29;20056;-87
2023/01/08 10:33:47;;;;;;;6.32;6.05;;;9.70;99.90;;;;;;4016736;29;20056;-87
2023/01/08 10:36:10;;;;;;;8.45;8.00;;;9.70;99.90;;;;;;4016668;29;20391;-87
2023/01/08 10:38:34;;;;;;;8.07;7.65;;;9.70;99.90;;;;;;4015100;29;20114;-87
2023/01/08 10:40:55;;;;;;;8.50;8.10;;;9.80;99.90;;;;;;4016182;29;20118;-87
2023/01/08 10:43:20;;;;;;;10.13;9.48;;;9.80;99.90;;;;;;4015068;29;20057;-87
2023/01/08 10:45:41;;;;;;;8.70;8.35;;;9.80;99.90;;;;;;4016538;29;20049;-87
2023/01/08 10:48:05;;;;;;;7.47;7.07;;;9.80;99.90;;;;;;4016624;29;20055;-87
2023/01/08 10:50:29;;;;;;;7.97;7.63;;;9.80;99.90;;;;;;4016511;29;20090;-87
2023/01/08 10:52:55;;;;;;;7.65;7.45;;;9.90;99.90;;;;;;4017350;29;20048;-86
2023/01/08 10:55:28;;;;;;;8.48;7.95;;;9.90;99.90;;;;;;4015107;29;20155;-87
2023/01/08 10:57:54;;;;;;;8.50;8.05;;;9.90;99.90;;;;;;4014874;29;20068;-87
2023/01/08 11:00:30;;;;;;;7.78;7.38;;;9.90;99.90;;;;;;4015983;29;20044;-87
2023/01/08 11:02:50;;;;;;;5.90;5.70;;;10.00;99.90;;;;;;4012319;29;20049;-87
2023/01/08 11:05:10;;;;;;;6.65;6.35;;;10.00;99.90;;;;;;4016175;29;20048;-87
2023/01/08 11:07:34;;;;;;;7.32;7.13;;;10.00;99.90;;;;;;4015257;29;20049;-87
2023/01/08 11:09:54;;;;;;;7.28;6.90;;;10.00;99.90;;;;;;4015104;29;20053;-87
2023/01/08 11:12:27;;;;;;;8.70;7.85;;;10.00;99.90;;;;;;4016193;29;20048;-87
2023/01/08 11:14:47;;;;;;;8.63;8.20;;;10.10;99.90;;;;;;4016279;29;20065;-87
2023/01/08 11:17:10;;;;;;;7.90;7.43;;;10.10;99.90;;;;;;4026113;29;20052;-87
2023/01/08 11:19:32;;;;;;;7.38;6.88;;;10.10;99.90;;;;;;4014581;29;20068;-87
2023/01/08 11:22:01;;;;;;;7.53;7.10;;;10.20;99.90;;;;;;4015230;29;20388;-87
2023/01/08 11:24:26;;;;;;;8.90;8.48;;;10.20;99.90;;;;;;4027285;29;20407;-88
2023/01/08 11:27:12;;;;;;;9.05;8.35;;;10.30;99.90;;;;;;4027722;29;20048;-90
2023/01/08 11:29:52;;;;;;;6.10;6.00;;;10.30;99.90;;;;;;4027523;29;20094;-88
2023/01/08 11:32:14;;;;;;;6.60;6.32;;;10.30;99.90;;;;;;4027153;29;20074;-89
2023/01/08 11:34:52;;;;;;;8.55;8.18;;;10.30;99.90;;;;;;4015856;29;20053;-89
2023/01/08 11:37:26;;;;;;;6.70;6.30;;;10.30;99.90;;;;;;4031671;29;20298;-89
2023/01/08 11:39:46;;;;;;;6.70;6.35;;;10.40;99.90;;;;;;4015006;29;20435;-89
2023/01/08 11:42:36;;;;;;;6.85;6.45;;;10.40;99.90;;;;;;4014290;29;20126;-89
2023/01/08 11:45:14;;;;;;;7.20;6.80;;;10.50;99.90;;;;;;3990016;29;20129;-89
2023/01/08 11:48:21;;;;;;;7.40;7.07;;;10.60;99.90;;;;;;4007866;29;20058;-89
2023/01/08 11:51:22;;;;;;;6.75;6.55;;;10.60;99.90;;;;;;4003364;29;20053;-89
2023/01/08 11:54:07;;;;;;;7.85;7.35;;;10.70;99.90;;;;;;4015589;29;20053;-89
2023/01/08 11:56:45;;;;;;;7.05;6.75;;;10.70;99.90;;;;;;4027449;29;20497;-88
2023/01/08 11:59:36;;;;;;;6.95;6.65;;;10.70;99.90;;;;;;4015282;29;20080;-89
2023/01/08 12:02:21;;;;;;;6.88;6.30;;;10.70;99.90;;;;;;4015470;29;20049;-89
2023/01/08 12:04:57;;;;;;;7.18;6.88;;;10.70;99.90;;;;;;4014847;29;20061;-89
2023/01/08 12:07:32;;;;;;;5.47;5.28;;;10.90;99.90;;;;;;4015500;29;20084;-89
2023/01/08 12:10:14;;;;;;;5.13;4.80;;;11.40;99.90;;;;;;4015602;29;20463;-89
2023/01/08 12:12:46;;;;;;;4.32;4.22;;;11.90;99.90;;;;;;4015504;29;20113;-89
2023/01/08 12:15:17;;;;;;;3.47;3.38;;;12.10;99.90;;;;;;4013973;29;20431;-88
2023/01/08 12:17:49;;;;;;;4.47;4.38;;;12.10;99.90;;;;;;4012804;29;20045;-87
2023/01/08 12:20:16;;;;;;;4.60;4.47;;;12.10;99.90;;;;;;4025859;29;20113;-88
2023/01/08 12:23:05;;;;;;;4.07;3.78;;;12.20;99.90;;;;;;4014270;29;20297;-87
2023/01/08 12:25:49;;;;;;;2.38;2.38;;;12.50;99.90;;;;;;4026587;29;20105;-88